sensor_id;sensor_type;location;lat;lon;timestamp;P1;durP1;ratioP1;P2;durP2;ratioP2
17197;SDS011;8715;51.010;6.812;2024-03-22T00:00:54;888.28;;;828.90;;
17197;SDS011;8715;51.010;6.812;2024-03-22T00:03:38;878.78;;;820.40;;
17197;SDS011;8715;51.010;6.812;2024-03-22T00:06:23;890.10;;;830.90;;
17197;SDS011;8715;51.010;6.812;2024-03-22T00:09:08;891.60;;;832.25;;
17197;SDS011;8715;51.010;6.812;2024-03-22T00:11:53;892.15;;;833.03;;
17197;SDS011;8715;51.010;6.812;2024-03-22T00:14:37;887.35;;;828.15;;
17197;SDS011;8715;51.010;6.812;2024-03-22T00:17:22;887.95;;;829.33;;
17197;SDS011;8715;51.010;6.812;2024-03-22T00:20:06;890.90;;;831.65;;
17197;SDS011;8715;51.010;6.812;2024-03-22T00:22:52;884.83;;;826.33;;
17197;SDS011;8715;51.010;6.812;2024-03-22T00:25:37;892.20;;;833.10;;
17197;SDS011;8715;51.010;6.812;2024-03-22T00:28:22;887.97;;;829.13;;
17197;SDS011;8715;51.010;6.812;2024-03-22T00:31:07;886.80;;;828.35;;
17197;SDS011;8715;51.010;6.812;2024-03-22T00:33:52;890.75;;;832.03;;
17197;SDS011;8715;51.010;6.812;2024-03-22T00:36:36;881.42;;;823.15;;
17197;SDS011;8715;51.010;6.812;2024-03-22T00:39:21;882.28;;;824.05;;
17197;SDS011;8715;51.010;6.812;2024-03-22T00:42:07;886.55;;;827.88;;
17197;SDS011;8715;51.010;6.812;2024-03-22T00:44:52;889.42;;;830.85;;
17197;SDS011;8715;51.010;6.812;2024-03-22T00:47:36;878.63;;;820.60;;
17197;SDS011;8715;51.010;6.812;2024-03-22T00:50:21;885.15;;;826.72;;
17197;SDS011;8715;51.010;6.812;2024-03-22T00:53:05;889.10;;;830.60;;
17197;SDS011;8715;51.010;6.812;2024-03-22T00:55:53;879.65;;;822.33;;
17197;SDS011;8715;51.010;6.812;2024-03-22T00:58:39;878.53;;;820.83;;
17197;SDS011;8715;51.010;6.812;2024-03-22T01:01:24;886.08;;;827.75;;
17197;SDS011;8715;51.010;6.812;2024-03-22T01:04:09;879.95;;;822.10;;
17197;SDS011;8715;51.010;6.812;2024-03-22T01:06:53;874.85;;;817.75;;
17197;SDS011;8715;51.010;6.812;2024-03-22T01:09:38;886.95;;;828.63;;
17197;SDS011;8715;51.010;6.812;2024-03-22T01:12:22;883.33;;;825.50;;
17197;SDS011;8715;51.010;6.812;2024-03-22T01:15:09;882.40;;;824.42;;
17197;SDS011;8715;51.010;6.812;2024-03-22T01:17:53;880.70;;;822.92;;
17197;SDS011;8715;51.010;6.812;2024-03-22T01:20:38;879.67;;;821.95;;
17197;SDS011;8715;51.010;6.812;2024-03-22T01:23:22;883.55;;;825.85;;
17197;SDS011;8715;51.010;6.812;2024-03-22T01:26:07;884.70;;;826.85;;
17197;SDS011;8715;51.010;6.812;2024-03-22T01:28:51;876.78;;;819.70;;
17197;SDS011;8715;51.010;6.812;2024-03-22T01:31:38;877.45;;;820.30;;
17197;SDS011;8715;51.010;6.812;2024-03-22T01:34:22;878.90;;;822.03;;
17197;SDS011;8715;51.010;6.812;2024-03-22T01:37:07;880.55;;;823.47;;
17197;SDS011;8715;51.010;6.812;2024-03-22T01:39:51;884.45;;;826.78;;
17197;SDS011;8715;51.010;6.812;2024-03-22T01:42:36;881.97;;;824.80;;
17197;SDS011;8715;51.010;6.812;2024-03-22T01:45:20;886.45;;;828.78;;
17197;SDS011;8715;51.010;6.812;2024-03-22T01:48:09;877.97;;;820.97;;
17197;SDS011;8715;51.010;6.812;2024-03-22T01:50:53;878.28;;;820.80;;
17197;SDS011;8715;51.010;6.812;2024-03-22T01:53:39;879.30;;;822.55;;
17197;SDS011;8715;51.010;6.812;2024-03-22T01:56:23;882.90;;;825.33;;
17197;SDS011;8715;51.010;6.812;2024-03-22T01:59:08;875.63;;;819.15;;
17197;SDS011;8715;51.010;6.812;2024-03-22T02:01:52;883.50;;;826.17;;
17197;SDS011;8715;51.010;6.812;2024-03-22T02:04:39;877.47;;;820.35;;
17197;SDS011;8715;51.010;6.812;2024-03-22T02:07:22;880.58;;;823.33;;
17197;SDS011;8715;51.010;6.812;2024-03-22T02:10:08;875.58;;;819.03;;
17197;SDS011;8715;51.010;6.812;2024-03-22T02:12:54;878.30;;;821.67;;
17197;SDS011;8715;51.010;6.812;2024-03-22T02:15:39;877.85;;;820.90;;
17197;SDS011;8715;51.010;6.812;2024-03-22T02:18:23;879.78;;;822.67;;
17197;SDS011;8715;51.010;6.812;2024-03-22T02:21:10;875.92;;;819.50;;
17197;SDS011;8715;51.010;6.812;2024-03-22T02:23:55;885.92;;;828.30;;
17197;SDS011;8715;51.010;6.812;2024-03-22T02:26:40;880.35;;;823.55;;
17197;SDS011;8715;51.010;6.812;2024-03-22T02:29:24;879.75;;;822.20;;
17197;SDS011;8715;51.010;6.812;2024-03-22T02:32:09;881.20;;;823.95;;
17197;SDS011;8715;51.010;6.812;2024-03-22T02:34:54;875.28;;;818.53;;
17197;SDS011;8715;51.010;6.812;2024-03-22T02:37:39;877.97;;;821.35;;
17197;SDS011;8715;51.010;6.812;2024-03-22T02:40:25;880.20;;;822.97;;
17197;SDS011;8715;51.010;6.812;2024-03-22T02:43:09;874.83;;;818.08;;
17197;SDS011;8715;51.010;6.812;2024-03-22T02:45:54;881.60;;;824.70;;
17197;SDS011;8715;51.010;6.812;2024-03-22T02:48:39;883.75;;;826.20;;
17197;SDS011;8715;51.010;6.812;2024-03-22T02:51:24;881.33;;;823.80;;
17197;SDS011;8715;51.010;6.812;2024-03-22T02:54:08;880.63;;;823.42;;
17197;SDS011;8715;51.010;6.812;2024-03-22T02:56:54;879.88;;;822.88;;
17197;SDS011;8715;51.010;6.812;2024-03-22T02:59:39;882.42;;;825.03;;
17197;SDS011;8715;51.010;6.812;2024-03-22T03:02:24;885.75;;;827.72;;
17197;SDS011;8715;51.010;6.812;2024-03-22T03:05:09;881.13;;;823.53;;
17197;SDS011;8715;51.010;6.812;2024-03-22T03:07:53;886.58;;;828.78;;
17197;SDS011;8715;51.010;6.812;2024-03-22T03:10:38;880.38;;;822.88;;
17197;SDS011;8715;51.010;6.812;2024-03-22T03:13:24;888.97;;;830.90;;
17197;SDS011;8715;51.010;6.812;2024-03-22T03:16:09;882.13;;;824.15;;
17197;SDS011;8715;51.010;6.812;2024-03-22T03:18:53;886.55;;;828.42;;
17197;SDS011;8715;51.010;6.812;2024-03-22T03:21:38;883.50;;;825.75;;
17197;SDS011;8715;51.010;6.812;2024-03-22T03:24:22;881.92;;;824.42;;
17197;SDS011;8715;51.010;6.812;2024-03-22T03:27:07;879.70;;;822.22;;
17197;SDS011;8715;51.010;6.812;2024-03-22T03:29:53;883.20;;;825.38;;
17197;SDS011;8715;51.010;6.812;2024-03-22T03:32:38;879.10;;;821.75;;
17197;SDS011;8715;51.010;6.812;2024-03-22T03:35:23;894.40;;;836.00;;
17197;SDS011;8715;51.010;6.812;2024-03-22T03:38:07;884.15;;;826.28;;
17197;SDS011;8715;51.010;6.812;2024-03-22T03:40:52;885.80;;;827.55;;
17197;SDS011;8715;51.010;6.812;2024-03-22T03:43:36;884.22;;;826.63;;
17197;SDS011;8715;51.010;6.812;2024-03-22T03:46:22;883.30;;;825.30;;
17197;SDS011;8715;51.010;6.812;2024-03-22T03:49:06;879.17;;;821.95;;
17197;SDS011;8715;51.010;6.812;2024-03-22T03:51:51;885.33;;;827.15;;
17197;SDS011;8715;51.010;6.812;2024-03-22T03:54:35;881.13;;;823.80;;
17197;SDS011;8715;51.010;6.812;2024-03-22T03:57:20;880.03;;;822.60;;
17197;SDS011;8715;51.010;6.812;2024-03-22T04:00:05;875.40;;;818.67;;
17197;SDS011;8715;51.010;6.812;2024-03-22T04:02:51;881.70;;;824.58;;
17197;SDS011;8715;51.010;6.812;2024-03-22T04:05:35;881.03;;;823.75;;
17197;SDS011;8715;51.010;6.812;2024-03-22T04:08:20;878.83;;;821.20;;
17197;SDS011;8715;51.010;6.812;2024-03-22T04:11:04;877.78;;;821.20;;
17197;SDS011;8715;51.010;6.812;2024-03-22T04:13:49;883.20;;;825.92;;
17197;SDS011;8715;51.010;6.812;2024-03-22T04:16:33;882.67;;;825.47;;
17197;SDS011;8715;51.010;6.812;2024-03-22T04:19:20;885.53;;;827.78;;
17197;SDS011;8715;51.010;6.812;2024-03-22T04:22:04;880.35;;;823.60;;
17197;SDS011;8715;51.010;6.812;2024-03-22T04:24:49;883.97;;;826.83;;
17197;SDS011;8715;51.010;6.812;2024-03-22T04:27:35;878.83;;;822.42;;
17197;SDS011;8715;51.010;6.812;2024-03-22T04:30:20;880.55;;;824.17;;
17197;SDS011;8715;51.010;6.812;2024-03-22T04:33:04;875.58;;;819.35;;
17197;SDS011;8715;51.010;6.812;2024-03-22T04:35:51;874.72;;;819.03;;
17197;SDS011;8715;51.010;6.812;2024-03-22T04:38:35;874.22;;;817.67;;
17197;SDS011;8715;51.010;6.812;2024-03-22T04:41:20;874.63;;;818.40;;
17197;SDS011;8715;51.010;6.812;2024-03-22T04:44:05;880.15;;;823.20;;
17197;SDS011;8715;51.010;6.812;2024-03-22T04:46:50;883.00;;;826.30;;
17197;SDS011;8715;51.010;6.812;2024-03-22T04:49:34;877.35;;;821.28;;
17197;SDS011;8715;51.010;6.812;2024-03-22T04:52:20;877.92;;;821.20;;
17197;SDS011;8715;51.010;6.812;2024-03-22T04:55:04;877.90;;;821.72;;
17197;SDS011;8715;51.010;6.812;2024-03-22T04:57:51;880.35;;;824.22;;
17197;SDS011;8715;51.010;6.812;2024-03-22T05:00:35;880.22;;;823.63;;
17197;SDS011;8715;51.010;6.812;2024-03-22T05:03:20;878.20;;;822.05;;
17197;SDS011;8715;51.010;6.812;2024-03-22T05:06:04;879.03;;;822.80;;
17197;SDS011;8715;51.010;6.812;2024-03-22T05:08:51;883.00;;;825.53;;
17197;SDS011;8715;51.010;6.812;2024-03-22T05:11:35;886.65;;;829.25;;
17197;SDS011;8715;51.010;6.812;2024-03-22T05:14:21;889.58;;;831.85;;
17197;SDS011;8715;51.010;6.812;2024-03-22T05:17:05;883.83;;;825.92;;
17197;SDS011;8715;51.010;6.812;2024-03-22T05:19:50;887.85;;;830.15;;
17197;SDS011;8715;51.010;6.812;2024-03-22T05:22:36;883.95;;;826.40;;
17197;SDS011;8715;51.010;6.812;2024-03-22T05:25:22;893.13;;;834.63;;
17197;SDS011;8715;51.010;6.812;2024-03-22T05:28:07;889.17;;;831.13;;
17197;SDS011;8715;51.010;6.812;2024-03-22T05:30:52;891.13;;;832.45;;
17197;SDS011;8715;51.010;6.812;2024-03-22T05:33:36;883.35;;;825.55;;
17197;SDS011;8715;51.010;6.812;2024-03-22T05:36:21;890.58;;;832.40;;
17197;SDS011;8715;51.010;6.812;2024-03-22T05:39:05;888.33;;;830.30;;
17197;SDS011;8715;51.010;6.812;2024-03-22T05:41:52;892.10;;;833.25;;
17197;SDS011;8715;51.010;6.812;2024-03-22T05:44:37;892.25;;;832.83;;
17197;SDS011;8715;51.010;6.812;2024-03-22T05:47:21;891.17;;;832.22;;
17197;SDS011;8715;51.010;6.812;2024-03-22T05:50:07;891.70;;;832.85;;
17197;SDS011;8715;51.010;6.812;2024-03-22T05:52:52;888.47;;;829.30;;
17197;SDS011;8715;51.010;6.812;2024-03-22T05:55:37;895.38;;;836.00;;
17197;SDS011;8715;51.010;6.812;2024-03-22T05:58:23;898.60;;;838.70;;
17197;SDS011;8715;51.010;6.812;2024-03-22T06:01:08;896.17;;;836.15;;
17197;SDS011;8715;51.010;6.812;2024-03-22T06:03:52;894.05;;;834.47;;
17197;SDS011;8715;51.010;6.812;2024-03-22T06:06:38;898.42;;;837.42;;
17197;SDS011;8715;51.010;6.812;2024-03-22T06:09:22;892.85;;;833.10;;
17197;SDS011;8715;51.010;6.812;2024-03-22T06:12:18;902.88;;;841.80;;
17197;SDS011;8715;51.010;6.812;2024-03-22T06:15:04;895.10;;;834.53;;
17197;SDS011;8715;51.010;6.812;2024-03-22T06:17:49;898.22;;;837.53;;
17197;SDS011;8715;51.010;6.812;2024-03-22T06:20:34;901.35;;;840.65;;
17197;SDS011;8715;51.010;6.812;2024-03-22T06:23:19;897.92;;;836.88;;
17197;SDS011;8715;51.010;6.812;2024-03-22T06:26:03;896.65;;;835.72;;
17197;SDS011;8715;51.010;6.812;2024-03-22T06:28:48;901.03;;;839.95;;
17197;SDS011;8715;51.010;6.812;2024-03-22T06:31:33;902.28;;;840.97;;
17197;SDS011;8715;51.010;6.812;2024-03-22T06:34:18;896.75;;;835.67;;
17197;SDS011;8715;51.010;6.812;2024-03-22T06:37:03;904.08;;;842.13;;
17197;SDS011;8715;51.010;6.812;2024-03-22T06:39:48;901.45;;;840.03;;
17197;SDS011;8715;51.010;6.812;2024-03-22T06:42:33;905.20;;;843.05;;
17197;SDS011;8715;51.010;6.812;2024-03-22T06:45:18;905.13;;;843.15;;
17197;SDS011;8715;51.010;6.812;2024-03-22T06:48:04;899.13;;;837.85;;
17197;SDS011;8715;51.010;6.812;2024-03-22T06:50:48;902.95;;;841.10;;
17197;SDS011;8715;51.010;6.812;2024-03-22T06:53:33;904.67;;;842.10;;
17197;SDS011;8715;51.010;6.812;2024-03-22T06:56:18;905.78;;;842.53;;
17197;SDS011;8715;51.010;6.812;2024-03-22T06:59:03;903.25;;;840.25;;
17197;SDS011;8715;51.010;6.812;2024-03-22T07:01:47;912.65;;;848.45;;
17197;SDS011;8715;51.010;6.812;2024-03-22T07:04:34;908.65;;;844.65;;
17197;SDS011;8715;51.010;6.812;2024-03-22T07:07:18;912.17;;;847.80;;
17197;SDS011;8715;51.010;6.812;2024-03-22T07:10:03;916.15;;;851.60;;
17197;SDS011;8715;51.010;6.812;2024-03-22T07:12:49;912.40;;;847.47;;
17197;SDS011;8715;51.010;6.812;2024-03-22T07:15:34;913.80;;;848.60;;
17197;SDS011;8715;51.010;6.812;2024-03-22T07:18:18;915.83;;;850.47;;
17197;SDS011;8715;51.010;6.812;2024-03-22T07:21:04;914.55;;;849.17;;
17197;SDS011;8715;51.010;6.812;2024-03-22T07:23:48;921.33;;;855.53;;
17197;SDS011;8715;51.010;6.812;2024-03-22T07:26:33;916.65;;;851.25;;
17197;SDS011;8715;51.010;6.812;2024-03-22T07:29:18;918.17;;;852.25;;
17197;SDS011;8715;51.010;6.812;2024-03-22T07:32:03;920.40;;;854.20;;
17197;SDS011;8715;51.010;6.812;2024-03-22T07:34:47;917.53;;;851.53;;
17197;SDS011;8715;51.010;6.812;2024-03-22T07:37:33;920.63;;;854.08;;
17197;SDS011;8715;51.010;6.812;2024-03-22T07:40:18;918.17;;;851.38;;
17197;SDS011;8715;51.010;6.812;2024-03-22T07:43:03;920.13;;;853.15;;
17197;SDS011;8715;51.010;6.812;2024-03-22T07:45:49;923.63;;;856.72;;
17197;SDS011;8715;51.010;6.812;2024-03-22T07:48:34;924.10;;;857.22;;
17197;SDS011;8715;51.010;6.812;2024-03-22T07:51:19;918.83;;;851.88;;
17197;SDS011;8715;51.010;6.812;2024-03-22T07:54:05;923.97;;;856.15;;
17197;SDS011;8715;51.010;6.812;2024-03-22T07:56:49;924.03;;;856.42;;
17197;SDS011;8715;51.010;6.812;2024-03-22T07:59:34;928.83;;;860.42;;
17197;SDS011;8715;51.010;6.812;2024-03-22T08:02:19;920.97;;;853.40;;
17197;SDS011;8715;51.010;6.812;2024-03-22T08:05:04;923.03;;;855.20;;
17197;SDS011;8715;51.010;6.812;2024-03-22T08:07:49;916.95;;;849.83;;
17197;SDS011;8715;51.010;6.812;2024-03-22T08:10:35;920.55;;;853.03;;
17197;SDS011;8715;51.010;6.812;2024-03-22T08:13:19;922.42;;;854.45;;
17197;SDS011;8715;51.010;6.812;2024-03-22T08:16:04;919.63;;;852.40;;
17197;SDS011;8715;51.010;6.812;2024-03-22T08:18:49;923.85;;;855.58;;
17197;SDS011;8715;51.010;6.812;2024-03-22T08:21:34;923.40;;;855.10;;
17197;SDS011;8715;51.010;6.812;2024-03-22T08:24:20;934.90;;;865.53;;
17197;SDS011;8715;51.010;6.812;2024-03-22T08:27:05;926.20;;;857.28;;
17197;SDS011;8715;51.010;6.812;2024-03-22T08:29:50;925.90;;;856.72;;
17197;SDS011;8715;51.010;6.812;2024-03-22T08:32:34;926.75;;;857.60;;
17197;SDS011;8715;51.010;6.812;2024-03-22T08:35:19;923.17;;;854.35;;
17197;SDS011;8715;51.010;6.812;2024-03-22T08:38:04;926.40;;;857.67;;
17197;SDS011;8715;51.010;6.812;2024-03-22T08:40:53;926.65;;;857.88;;
17197;SDS011;8715;51.010;6.812;2024-03-22T08:43:38;924.85;;;856.22;;
17197;SDS011;8715;51.010;6.812;2024-03-22T08:46:23;923.63;;;854.88;;
17197;SDS011;8715;51.010;6.812;2024-03-22T08:49:10;923.50;;;855.22;;
17197;SDS011;8715;51.010;6.812;2024-03-22T08:51:55;925.75;;;856.88;;
17197;SDS011;8715;51.010;6.812;2024-03-22T08:54:40;923.13;;;854.83;;
17197;SDS011;8715;51.010;6.812;2024-03-22T08:57:25;922.30;;;853.95;;
17197;SDS011;8715;51.010;6.812;2024-03-22T09:00:11;921.28;;;853.03;;
17197;SDS011;8715;51.010;6.812;2024-03-22T09:02:56;924.28;;;855.75;;
17197;SDS011;8715;51.010;6.812;2024-03-22T09:05:40;922.30;;;854.15;;
17197;SDS011;8715;51.010;6.812;2024-03-22T09:08:26;926.30;;;857.35;;
17197;SDS011;8715;51.010;6.812;2024-03-22T09:11:12;921.17;;;852.33;;
17197;SDS011;8715;51.010;6.812;2024-03-22T09:13:57;925.47;;;856.65;;
17197;SDS011;8715;51.010;6.812;2024-03-22T09:16:43;924.85;;;856.05;;
17197;SDS011;8715;51.010;6.812;2024-03-22T09:19:27;925.65;;;856.92;;
17197;SDS011;8715;51.010;6.812;2024-03-22T09:22:12;922.85;;;854.15;;
17197;SDS011;8715;51.010;6.812;2024-03-22T09:24:58;923.15;;;854.15;;
17197;SDS011;8715;51.010;6.812;2024-03-22T09:27:43;925.53;;;856.67;;
17197;SDS011;8715;51.010;6.812;2024-03-22T09:30:28;923.80;;;854.92;;
17197;SDS011;8715;51.010;6.812;2024-03-22T09:33:14;925.97;;;856.47;;
17197;SDS011;8715;51.010;6.812;2024-03-22T09:35:58;928.15;;;858.53;;
17197;SDS011;8715;51.010;6.812;2024-03-22T09:38:43;927.63;;;858.45;;
17197;SDS011;8715;51.010;6.812;2024-03-22T09:41:27;928.25;;;858.72;;
17197;SDS011;8715;51.010;6.812;2024-03-22T09:44:13;923.72;;;854.78;;
17197;SDS011;8715;51.010;6.812;2024-03-22T09:46:57;926.95;;;857.92;;
17197;SDS011;8715;51.010;6.812;2024-03-22T09:49:45;930.55;;;861.22;;
17197;SDS011;8715;51.010;6.812;2024-03-22T09:52:30;927.63;;;858.05;;
17197;SDS011;8715;51.010;6.812;2024-03-22T09:55:16;932.17;;;862.17;;
17197;SDS011;8715;51.010;6.812;2024-03-22T09:58:00;929.53;;;859.55;;
17197;SDS011;8715;51.010;6.812;2024-03-22T10:00:46;935.03;;;864.58;;
17197;SDS011;8715;51.010;6.812;2024-03-22T10:03:30;928.50;;;858.53;;
17197;SDS011;8715;51.010;6.812;2024-03-22T10:06:16;929.83;;;859.50;;
17197;SDS011;8715;51.010;6.812;2024-03-22T10:09:00;931.08;;;860.85;;
17197;SDS011;8715;51.010;6.812;2024-03-22T10:11:47;933.88;;;863.13;;
17197;SDS011;8715;51.010;6.812;2024-03-22T10:14:32;929.15;;;859.33;;
17197;SDS011;8715;51.010;6.812;2024-03-22T10:17:17;928.92;;;859.13;;
17197;SDS011;8715;51.010;6.812;2024-03-22T10:20:01;929.00;;;859.50;;
17197;SDS011;8715;51.010;6.812;2024-03-22T10:22:49;928.72;;;859.53;;
17197;SDS011;8715;51.010;6.812;2024-03-22T10:25:38;929.20;;;860.17;;
17197;SDS011;8715;51.010;6.812;2024-03-22T10:28:23;927.90;;;858.38;;
17197;SDS011;8715;51.010;6.812;2024-03-22T10:31:08;927.53;;;858.03;;
17197;SDS011;8715;51.010;6.812;2024-03-22T10:33:53;927.10;;;857.47;;
17197;SDS011;8715;51.010;6.812;2024-03-22T10:36:37;927.95;;;858.30;;
17197;SDS011;8715;51.010;6.812;2024-03-22T10:39:24;927.05;;;857.63;;
17197;SDS011;8715;51.010;6.812;2024-03-22T10:42:09;927.17;;;857.88;;
17197;SDS011;8715;51.010;6.812;2024-03-22T10:44:55;927.92;;;858.17;;
17197;SDS011;8715;51.010;6.812;2024-03-22T10:47:39;927.85;;;857.72;;
17197;SDS011;8715;51.010;6.812;2024-03-22T10:50:25;928.25;;;858.35;;
17197;SDS011;8715;51.010;6.812;2024-03-22T10:53:11;930.13;;;860.20;;
17197;SDS011;8715;51.010;6.812;2024-03-22T10:55:59;931.33;;;860.88;;
17197;SDS011;8715;51.010;6.812;2024-03-22T10:58:44;929.55;;;859.75;;
17197;SDS011;8715;51.010;6.812;2024-03-22T11:01:31;929.40;;;859.00;;
17197;SDS011;8715;51.010;6.812;2024-03-22T11:04:20;933.20;;;862.58;;
17197;SDS011;8715;51.010;6.812;2024-03-22T11:07:06;932.60;;;862.28;;
17197;SDS011;8715;51.010;6.812;2024-03-22T11:09:52;929.90;;;859.92;;
17197;SDS011;8715;51.010;6.812;2024-03-22T11:12:38;925.60;;;856.15;;
17197;SDS011;8715;51.010;6.812;2024-03-22T11:15:22;929.00;;;858.95;;
17197;SDS011;8715;51.010;6.812;2024-03-22T11:18:07;926.40;;;856.90;;
17197;SDS011;8715;51.010;6.812;2024-03-22T11:20:52;928.17;;;858.33;;
17197;SDS011;8715;51.010;6.812;2024-03-22T11:23:36;927.92;;;858.33;;
17197;SDS011;8715;51.010;6.812;2024-03-22T11:26:21;928.95;;;859.25;;
17197;SDS011;8715;51.010;6.812;2024-03-22T11:29:07;929.28;;;859.40;;
17197;SDS011;8715;51.010;6.812;2024-03-22T11:31:52;925.08;;;855.70;;
17197;SDS011;8715;51.010;6.812;2024-03-22T11:34:37;926.15;;;856.83;;
17197;SDS011;8715;51.010;6.812;2024-03-22T11:37:22;927.33;;;858.20;;
17197;SDS011;8715;51.010;6.812;2024-03-22T11:40:08;928.20;;;858.70;;
17197;SDS011;8715;51.010;6.812;2024-03-22T11:42:54;927.25;;;857.53;;
17197;SDS011;8715;51.010;6.812;2024-03-22T11:45:41;927.28;;;857.30;;
17197;SDS011;8715;51.010;6.812;2024-03-22T11:48:26;924.65;;;855.08;;
17197;SDS011;8715;51.010;6.812;2024-03-22T11:51:12;927.13;;;857.55;;
17197;SDS011;8715;51.010;6.812;2024-03-22T11:53:56;927.33;;;858.08;;
17197;SDS011;8715;51.010;6.812;2024-03-22T11:56:41;925.25;;;855.92;;
17197;SDS011;8715;51.010;6.812;2024-03-22T11:59:26;927.92;;;858.67;;
17197;SDS011;8715;51.010;6.812;2024-03-22T12:02:12;928.92;;;859.58;;
17197;SDS011;8715;51.010;6.812;2024-03-22T12:04:56;923.08;;;854.05;;
17197;SDS011;8715;51.010;6.812;2024-03-22T12:07:41;924.65;;;855.55;;
17197;SDS011;8715;51.010;6.812;2024-03-22T12:10:25;924.70;;;855.72;;
17197;SDS011;8715;51.010;6.812;2024-03-22T12:13:10;926.80;;;856.95;;
17197;SDS011;8715;51.010;6.812;2024-03-22T12:15:54;927.80;;;858.33;;
17197;SDS011;8715;51.010;6.812;2024-03-22T12:18:41;929.95;;;860.10;;
17197;SDS011;8715;51.010;6.812;2024-03-22T12:21:25;926.72;;;857.72;;
17197;SDS011;8715;51.010;6.812;2024-03-22T12:24:10;931.88;;;862.05;;
17197;SDS011;8715;51.010;6.812;2024-03-22T12:26:55;929.83;;;860.35;;
17197;SDS011;8715;51.010;6.812;2024-03-22T12:29:39;926.78;;;857.17;;
17197;SDS011;8715;51.010;6.812;2024-03-22T12:32:25;926.28;;;856.63;;
17197;SDS011;8715;51.010;6.812;2024-03-22T12:35:11;924.42;;;855.58;;
17197;SDS011;8715;51.010;6.812;2024-03-22T12:37:55;927.50;;;858.17;;
17197;SDS011;8715;51.010;6.812;2024-03-22T12:40:40;926.75;;;857.30;;
17197;SDS011;8715;51.010;6.812;2024-03-22T12:43:25;927.53;;;858.22;;
17197;SDS011;8715;51.010;6.812;2024-03-22T12:46:10;925.47;;;856.20;;
17197;SDS011;8715;51.010;6.812;2024-03-22T12:48:54;929.30;;;860.00;;
17197;SDS011;8715;51.010;6.812;2024-03-22T12:51:41;925.03;;;856.35;;
17197;SDS011;8715;51.010;6.812;2024-03-22T12:54:25;923.55;;;854.28;;
17197;SDS011;8715;51.010;6.812;2024-03-22T12:57:10;925.40;;;856.47;;
17197;SDS011;8715;51.010;6.812;2024-03-22T12:59:55;928.08;;;858.72;;
17197;SDS011;8715;51.010;6.812;2024-03-22T13:02:40;930.47;;;860.50;;
17197;SDS011;8715;51.010;6.812;2024-03-22T13:05:25;928.70;;;858.70;;
17197;SDS011;8715;51.010;6.812;2024-03-22T13:08:10;928.00;;;858.22;;
17197;SDS011;8715;51.010;6.812;2024-03-22T13:10:55;929.28;;;859.38;;
17197;SDS011;8715;51.010;6.812;2024-03-22T13:13:39;926.92;;;857.75;;
17197;SDS011;8715;51.010;6.812;2024-03-22T13:16:24;930.42;;;860.88;;
17197;SDS011;8715;51.010;6.812;2024-03-22T13:19:08;927.67;;;858.13;;
17197;SDS011;8715;51.010;6.812;2024-03-22T13:21:56;928.53;;;858.88;;
17197;SDS011;8715;51.010;6.812;2024-03-22T13:24:41;926.20;;;856.38;;
17197;SDS011;8715;51.010;6.812;2024-03-22T13:27:26;930.63;;;861.10;;
17197;SDS011;8715;51.010;6.812;2024-03-22T13:30:12;929.65;;;859.65;;
17197;SDS011;8715;51.010;6.812;2024-03-22T13:32:58;927.90;;;858.13;;
17197;SDS011;8715;51.010;6.812;2024-03-22T13:35:44;928.80;;;858.92;;
17197;SDS011;8715;51.010;6.812;2024-03-22T13:38:30;928.40;;;858.35;;
17197;SDS011;8715;51.010;6.812;2024-03-22T13:41:15;927.33;;;857.85;;
17197;SDS011;8715;51.010;6.812;2024-03-22T13:44:00;925.17;;;855.78;;
17197;SDS011;8715;51.010;6.812;2024-03-22T13:46:47;927.03;;;857.97;;
17197;SDS011;8715;51.010;6.812;2024-03-22T13:49:33;925.15;;;856.33;;
17197;SDS011;8715;51.010;6.812;2024-03-22T13:52:19;925.58;;;856.17;;
17197;SDS011;8715;51.010;6.812;2024-03-22T13:55:05;928.30;;;858.97;;
17197;SDS011;8715;51.010;6.812;2024-03-22T13:57:51;925.42;;;855.92;;
17197;SDS011;8715;51.010;6.812;2024-03-22T14:00:35;929.05;;;859.60;;
17197;SDS011;8715;51.010;6.812;2024-03-22T14:03:20;924.60;;;856.10;;
17197;SDS011;8715;51.010;6.812;2024-03-22T14:06:04;922.65;;;854.28;;
17197;SDS011;8715;51.010;6.812;2024-03-22T14:08:49;927.25;;;858.38;;
17197;SDS011;8715;51.010;6.812;2024-03-22T14:11:33;926.30;;;857.83;;
17197;SDS011;8715;51.010;6.812;2024-03-22T14:14:20;920.35;;;852.55;;
17197;SDS011;8715;51.010;6.812;2024-03-22T14:17:05;921.40;;;853.40;;
17197;SDS011;8715;51.010;6.812;2024-03-22T14:19:49;920.13;;;852.15;;
17197;SDS011;8715;51.010;6.812;2024-03-22T14:22:35;923.70;;;856.00;;
17197;SDS011;8715;51.010;6.812;2024-03-22T14:25:19;922.33;;;854.55;;
17197;SDS011;8715;51.010;6.812;2024-03-22T14:28:05;919.42;;;851.97;;
17197;SDS011;8715;51.010;6.812;2024-03-22T14:30:51;917.72;;;850.97;;
17197;SDS011;8715;51.010;6.812;2024-03-22T14:33:36;917.40;;;850.72;;
17197;SDS011;8715;51.010;6.812;2024-03-22T14:36:21;921.15;;;854.13;;
17197;SDS011;8715;51.010;6.812;2024-03-22T14:39:06;914.30;;;847.83;;
17197;SDS011;8715;51.010;6.812;2024-03-22T14:41:51;920.53;;;853.63;;
17197;SDS011;8715;51.010;6.812;2024-03-22T14:44:35;912.97;;;847.13;;
17197;SDS011;8715;51.010;6.812;2024-03-22T14:47:21;914.38;;;848.70;;
17197;SDS011;8715;51.010;6.812;2024-03-22T14:50:06;913.72;;;848.33;;
17197;SDS011;8715;51.010;6.812;2024-03-22T14:52:51;916.25;;;850.20;;
17197;SDS011;8715;51.010;6.812;2024-03-22T14:55:35;910.13;;;844.55;;
17197;SDS011;8715;51.010;6.812;2024-03-22T14:58:20;912.40;;;846.72;;
17197;SDS011;8715;51.010;6.812;2024-03-22T15:01:04;915.05;;;848.92;;
17197;SDS011;8715;51.010;6.812;2024-03-22T15:03:51;918.28;;;852.35;;
17197;SDS011;8715;51.010;6.812;2024-03-22T15:06:35;920.47;;;854.42;;
17197;SDS011;8715;51.010;6.812;2024-03-22T15:09:20;909.80;;;844.38;;
17197;SDS011;8715;51.010;6.812;2024-03-22T15:12:05;915.53;;;850.13;;
17197;SDS011;8715;51.010;6.812;2024-03-22T15:14:51;909.83;;;844.67;;
17197;SDS011;8715;51.010;6.812;2024-03-22T15:17:36;919.22;;;853.35;;
17197;SDS011;8715;51.010;6.812;2024-03-22T15:20:23;915.25;;;849.92;;
17197;SDS011;8715;51.010;6.812;2024-03-22T15:23:07;913.03;;;848.05;;
17197;SDS011;8715;51.010;6.812;2024-03-22T15:25:52;903.28;;;839.92;;
17197;SDS011;8715;51.010;6.812;2024-03-22T15:28:36;904.78;;;841.42;;
17197;SDS011;8715;51.010;6.812;2024-03-22T15:31:21;905.60;;;842.15;;
17197;SDS011;8715;51.010;6.812;2024-03-22T15:34:06;903.47;;;839.97;;
17197;SDS011;8715;51.010;6.812;2024-03-22T15:36:52;905.70;;;842.05;;
17197;SDS011;8715;51.010;6.812;2024-03-22T15:39:37;907.97;;;844.33;;
17197;SDS011;8715;51.010;6.812;2024-03-22T15:42:21;905.95;;;842.97;;
17197;SDS011;8715;51.010;6.812;2024-03-22T15:45:07;904.05;;;841.10;;
17197;SDS011;8715;51.010;6.812;2024-03-22T15:47:51;901.13;;;838.58;;
17197;SDS011;8715;51.010;6.812;2024-03-22T15:50:36;898.38;;;836.00;;